• Join FlightAware (Why Join?)
  • Login
  • US Flag 
11:34PM EDT


 

Airport Tracker/Info


-or-


 

Live Flight TrackerFlight Track Log ✈ N678H ✈ 09-Sep-2013 ✈ KLIT - KASG

Flight Track Log - Related Links

Times and Time Zones

All times are in EDT time to prevent confusion due to time zone crossing. See the N678H flight status page for this flight to view local times or setup timezone preferences in your user account.

Time Position Orientation Groundspeed Altitude Reporting Facility
EDT Latitude Longitude Course Direction KTS MPH feet Rate Location/Type
05:05PM 34.6881 -92.2717 240° Southwest 125 144 1,700  Level Memphis Center
05:06PM 34.6856 -92.3119 266° West 123 142 2,600 780 Climbing Memphis Center
05:07PM 34.6828 -92.3522 265° West 119 137 3,400 840 Climbing Memphis Center
05:08PM 34.6947 -92.3881 292° West 117 135 4,400 840 Climbing Memphis Center
05:09PM 34.7022 -92.4311 282° West 124 143 5,100 660 Climbing Memphis Center
05:10PM 34.9066 -92.4511 311° West  Level Estimated
05:10PM 34.7100 -92.4742 282° West 131 151 5,800  Level Memphis Center
05:11PM 34.7197 -92.5175 285° West 125 144 6,600 780 Climbing Memphis Center
05:12PM 34.7294 -92.5531 288° West 120 138 7,400 720 Climbing Memphis Center
05:14PM 34.7408 -92.6089 284° West 120 138 8,600 720 Climbing Memphis Center
05:15PM 34.7611 -92.6447 305° West 120 138 9,300 720 Climbing Memphis Center
05:16PM 34.7856 -92.6733 316° Northwest 120 138 10,100 660 Climbing Memphis Center
05:17PM 34.8100 -92.7044 314° West 125 144 10,700 660 Climbing Memphis Center
05:18PM 34.8389 -92.7331 321° Northwest 130 150 11,500 600 Climbing Memphis Center
05:19PM 34.8675 -92.7642 318° Northwest 130 150 12,000 240 Climbing Memphis Center
05:20PM 34.9064 -92.7981 324° Northwest 145 167 12,000  Level Memphis Center
05:21PM 34.9453 -92.8322 324° Northwest 162 186 12,000  Level Memphis Center
05:22PM 34.9842 -92.8664 324° Northwest 167 192 12,000  Level Memphis Center
05:23PM 35.0192 -92.9003 322° Northwest 167 192 12,000  Level Memphis Center
05:24PM 35.0578 -92.9394 320° Northwest 172 198 12,000  Level Memphis Center
05:25PM 35.0925 -92.9761 319° Northwest 172 198 12,000  Level Memphis Center
05:26PM 35.1272 -93.0153 317° Northwest 172 198 12,000  Level Memphis Center
05:27PM 35.1661 -93.0547 320° Northwest 172 198 12,000  Level Memphis Center
05:28PM 35.2006 -93.0939 317° Northwest 172 198 12,000  Level Memphis Center
05:29PM 35.2436 -93.1333 323° Northwest 172 198 12,000  Level Memphis Center
05:30PM 35.2844 -93.1653 327° Northwest 172 198 12,000  Level Memphis Center
05:31PM 35.3192 -93.2019 319° Northwest 172 198 12,000  Level Memphis Center
05:32PM 35.3536 -93.2464 314° West 172 198 12,000  Level Memphis Center
05:33PM 35.3922 -93.2861 320° Northwest 172 198 12,100  Climbing Memphis Center
05:34PM 35.4289 -93.3231 321° Northwest 172 198 12,100  Level Memphis Center
05:35PM 35.4678 -93.3575 324° Northwest 177 204 12,100 -60 Level Memphis Center
05:36PM 35.5064 -93.3972 320° Northwest 177 204 12,000 -60 Descending Memphis Center
05:37PM 35.5431 -93.4367 319° Northwest 177 204 12,000  Level Memphis Center
05:38PM 35.5817 -93.4739 322° Northwest 177 204 12,000  Level Memphis Center
05:39PM 35.6183 -93.5136 319° Northwest 177 204 12,000  Level Memphis Center
05:40PM 35.6528 -93.5533 317° Northwest 177 204 12,100 -720 Climbing Memphis Center
05:41PM 35.6975 -93.6008 319° Northwest 185 213 10,600 -1,260 Descending Memphis Center
05:42PM 35.7461 -93.6464 323° Northwest 209 241 9,600 -900 Descending Memphis Center
05:43PM 35.7931 -93.6917 322° Northwest 214 246 8,800 -1,380 Descending Memphis Center
05:44PM 35.8375 -93.7447 316° Northwest 214 246 6,900 -1,800 Descending Memphis Center
05:45PM 35.8817 -93.8003 314° West 219 252 5,300 -1,200 Descending Memphis Center
05:46PM 35.9244 -93.8431 321° Northwest 214 246 4,500 -660 Descending Memphis Center
05:47PM 35.9608 -93.8858 316° Northwest 208 239 4,000 -540 Descending Memphis Center
05:54PM 36.0109 -93.9448 316° Northwest  Level FlightAware Approximate
06:01PM 36.1667 -94.1167 321° Northwest  Level FlightAware Approximate
06:02PM 36.1764 -94.1192 321° Northwest  Level Estimated
06:03PM 36.1764 -94.1192 321° Northwest  Level Estimated
06:04PM 36.1764 -94.1192 321° Northwest  Level Estimated